KPAE

Paine Field

Airport
ICAO code
KPAE
IATA Code
PAE
Summary
ICAO Region
NAM
ICAO Territory
Location

Everett, Snohomish County, Washington

Serving
Everett, Snohomish County
Elevation
606 ft
Coordinates
47° 54' 25" N , 122° 16' 54" W
Metar
KPAE 221053Z 35003KT 10SM CLR 14/11 A3011 RMK AO2 SLP195 T01390111

Runways

Designator Length Width Surface Rops
16L/34R 914 23 ASP Yes/Yes
11/29 1376 23 ASP Yes/Yes
16R/34L 2746 46 ASP Yes/Yes

Airport map

Aerial View

SKYbrary Partners:

Safety knowledge contributed by: